^^
Station Historical Data
 
Daily Summary for March 21, 2019 Units:  English    Metric   Both
« Previous Day
Next Day »
Daily Weekly Monthly Yearly Custom
  Current: High: Low: Average:
Temperature: 41.1 °F TemperatureF °F 41.1 °F 43.8 °F
Dew Point: 36.6 °F DewpointF °F 36.5 °F 36.9 °F
Humidity: 84% Humidity% 68% 75%
Wind Speed: 1.2mph WindSpeedMPHmph 0.0mph 2.9mph
Wind Gust: 0.7mph WindSpeedGustMPHmph - -
WindWNW - - SSW
Pressure: 30.10 in PressureIn in 30.06 in -
Precipitation: 0.00 in      
Historical Graphs
 
 
Tabular Data for March 21, 2019
Time Temperature Dew Point Pressure Wind Wind Speed Wind Gust Humidity Rainfall Rate (Hourly)
TemperatureF °F DewpointF °F PressureIn in Calm     Humidity% HourlyPrecipIn in
00:04 48.2 °F 38.1 °F 30.06 in NNE 4.6 mph 3.6 mph 68% 0.00 in
00:09 48.1 °F 38.4 °F 30.06 in NNW 3.5 mph 1.6 mph 69% 0.00 in
00:14 47.9 °F 38.2 °F 30.06 in North 5.8 mph 3.5 mph 69% 0.00 in
00:19 47.8 °F 38.5 °F 30.06 in NNE 3.5 mph 1.9 mph 70% 0.00 in
00:24 47.6 °F 38.3 °F 30.06 in North 3.5 mph 1.8 mph 70% 0.00 in
00:29 47.4 °F 38.5 °F 30.06 in NNW 2.3 mph 1.1 mph 71% 0.00 in
00:34 47.2 °F 38.3 °F 30.06 in North 3.5 mph 1.5 mph 71% 0.00 in
00:39 47.1 °F 38.5 °F 30.07 in North 3.5 mph 1.3 mph 72% 0.00 in
00:44 46.9 °F 38.3 °F 30.07 in North 4.6 mph 3.1 mph 72% 0.00 in
00:49 46.9 °F 38.3 °F 30.07 in North 5.0 mph 2.9 mph 72% 0.00 in
00:54 46.7 °F 38.5 °F 30.07 in WNW 4.6 mph 2.7 mph 73% 0.00 in
00:59 46.6 °F 38.4 °F 30.07 in NNW 6.9 mph 3.2 mph 73% 0.00 in
01:04 46.4 °F 38.6 °F 30.07 in North 8.1 mph 4.0 mph 74% 0.00 in
01:09 46.3 °F 38.5 °F 30.07 in North 3.0 mph 1.8 mph 74% 0.00 in
01:14 46.1 °F 38.3 °F 30.07 in NNW 3.5 mph 1.7 mph 74% 0.00 in
01:19 46.0 °F 38.5 °F 30.07 in NNE 4.0 mph 2.4 mph 75% 0.00 in
01:24 45.8 °F 38.3 °F 30.07 in North 3.5 mph 1.0 mph 75% 0.00 in
01:29 45.6 °F 38.1 °F 30.07 in NNW 3.5 mph 2.4 mph 75% 0.00 in
01:34 45.5 °F 38.4 °F 30.07 in NNE 3.5 mph 2.1 mph 76% 0.00 in
01:39 45.3 °F 38.2 °F 30.08 in North 4.6 mph 2.5 mph 76% 0.00 in
01:44 45.2 °F 38.1 °F 30.08 in North 3.5 mph 2.7 mph 76% 0.00 in
01:49 45.1 °F 38.0 °F 30.08 in North 3.5 mph 3.0 mph 76% 0.00 in
01:54 44.9 °F 38.1 °F 30.08 in NW 4.0 mph 2.0 mph 77% 0.00 in
01:59 44.7 °F 37.9 °F 30.08 in NW 2.3 mph 1.5 mph 77% 0.00 in
02:04 44.4 °F 38.0 °F 30.09 in North 3.5 mph 1.2 mph 78% 0.00 in
02:09 44.2 °F 37.8 °F 30.09 in NNW 2.3 mph 1.7 mph 78% 0.00 in
02:14 44.1 °F 37.7 °F 30.09 in NNW 1.2 mph 1.2 mph 78% 0.00 in
02:19 43.9 °F 37.8 °F 30.09 in NNE 1.2 mph 0.5 mph 79% 0.00 in
02:24 43.7 °F 37.6 °F 30.09 in North 3.5 mph 0.8 mph 79% 0.00 in
02:29 43.5 °F 37.4 °F 30.10 in North 1.2 mph 0.3 mph 79% 0.00 in
02:34 43.3 °F 37.2 °F 30.10 in Calm     79% 0.00 in
02:39 43.1 °F 37.3 °F 30.10 in Calm     80% 0.00 in
02:44 42.8 °F 37.1 °F 30.10 in NW 2.3 mph 1.5 mph 80% 0.00 in
02:49 42.6 °F 37.2 °F 30.10 in NW 1.0 mph   81% 0.00 in
02:54 42.4 °F 37.0 °F 30.10 in NW 2.3 mph 0.8 mph 81% 0.00 in
02:59 42.2 °F 37.1 °F 30.10 in NNW 1.2 mph 0.5 mph 82% 0.00 in
03:04 42.0 °F 36.9 °F 30.10 in NNW 1.2 mph 0.4 mph 82% 0.00 in
03:09 41.9 °F 36.8 °F 30.10 in Calm     82% 0.00 in
03:14 41.6 °F 36.8 °F 30.10 in WNW 1.0 mph   83% 0.00 in
03:19 41.4 °F 36.6 °F 30.10 in West 2.3 mph 0.5 mph 83% 0.00 in
03:24 41.3 °F 36.5 °F 30.11 in Calm     83% 0.00 in
03:29 41.1 °F 36.6 °F 30.10 in WNW 1.2 mph 0.7 mph 84% 0.00 in
Live Lenexa Weather
Compliments of Weather Underground - 1 mb